Weather at Kay Airport

Public forecast

Using degrees Fahrenheit for public forecast. Weather courtesy of forecast.io.

Closest aviation weather report (METAR) to Kay Airport

Report is more than 6 hours old.

Closest report is Lee County Airport, 13.5 nm (25.0 km) NNW. Retrieved 2021/06/08 04:35 UTC (12 days ago):

K0VG 080435Z AUTO 00000KT 10SM SCT045 BKN050 OVC060 20/20 A3017 RMK AO2

Closest aviation forecast (TAF) to Kay Airport

Closest forecast is Tri-Cities Regional TN/VA Airport, 34.1 nm (63.1 km) E. Retrieved 2021/06/20 06:42 UTC (2 hours ago):

TAF KTRI 200540Z 2006/2106 24006KT P6SM SCT035 BKN080 BKN180 FM201400 12005KT P6SM VCSH BKN050 BKN100 FM201500 14005KT P6SM SCT050 PROB30 2015/2017 4SM -SHRA BR BKN050 BKN120 FM201700 16006KT P6SM BKN045 PROB30 2017/2021 4SM -SHRA BR OVC025 FM202100 19006KT P6SM SCT060